sensor_id;sensor_type;location;lat;lon;timestamp;P1;durP1;ratioP1;P2;durP2;ratioP2
47431;SDS011;33183;52.290;6.144;2022-12-19T00:03:42;9.00;;;6.70;;
47431;SDS011;33183;52.290;6.144;2022-12-19T00:06:08;8.02;;;5.65;;
47431;SDS011;33183;52.290;6.144;2022-12-19T00:08:33;7.50;;;6.18;;
47431;SDS011;33183;52.290;6.144;2022-12-19T00:10:59;6.85;;;5.25;;
47431;SDS011;33183;52.290;6.144;2022-12-19T00:13:26;6.85;;;6.10;;
47431;SDS011;33183;52.290;6.144;2022-12-19T00:15:52;8.68;;;6.65;;
47431;SDS011;33183;52.290;6.144;2022-12-19T00:18:17;7.38;;;6.07;;
47431;SDS011;33183;52.290;6.144;2022-12-19T00:20:43;8.05;;;5.57;;
47431;SDS011;33183;52.290;6.144;2022-12-19T00:23:08;8.15;;;5.90;;
47431;SDS011;33183;52.290;6.144;2022-12-19T00:25:33;8.07;;;5.85;;
47431;SDS011;33183;52.290;6.144;2022-12-19T00:27:59;7.88;;;5.68;;
47431;SDS011;33183;52.290;6.144;2022-12-19T00:30:24;7.18;;;5.53;;
47431;SDS011;33183;52.290;6.144;2022-12-19T00:32:49;7.78;;;6.03;;
47431;SDS011;33183;52.290;6.144;2022-12-19T00:35:15;7.70;;;6.00;;
47431;SDS011;33183;52.290;6.144;2022-12-19T00:37:40;7.78;;;5.88;;
47431;SDS011;33183;52.290;6.144;2022-12-19T00:40:05;6.75;;;5.60;;
47431;SDS011;33183;52.290;6.144;2022-12-19T00:42:31;6.93;;;5.43;;
47431;SDS011;33183;52.290;6.144;2022-12-19T00:44:56;7.93;;;5.70;;
47431;SDS011;33183;52.290;6.144;2022-12-19T00:47:22;7.03;;;5.20;;
47431;SDS011;33183;52.290;6.144;2022-12-19T00:49:47;8.15;;;5.78;;
47431;SDS011;33183;52.290;6.144;2022-12-19T00:52:15;6.93;;;5.38;;
47431;SDS011;33183;52.290;6.144;2022-12-19T00:54:40;7.97;;;5.47;;
47431;SDS011;33183;52.290;6.144;2022-12-19T00:57:05;7.43;;;5.50;;
47431;SDS011;33183;52.290;6.144;2022-12-19T00:59:31;7.40;;;5.75;;
47431;SDS011;33183;52.290;6.144;2022-12-19T01:01:56;6.57;;;5.35;;
47431;SDS011;33183;52.290;6.144;2022-12-19T01:04:21;7.15;;;5.53;;
47431;SDS011;33183;52.290;6.144;2022-12-19T01:06:47;7.68;;;5.40;;
47431;SDS011;33183;52.290;6.144;2022-12-19T01:09:12;6.95;;;5.10;;
47431;SDS011;33183;52.290;6.144;2022-12-19T01:11:37;5.88;;;5.15;;
47431;SDS011;33183;52.290;6.144;2022-12-19T01:14:22;6.93;;;5.20;;
47431;SDS011;33183;52.290;6.144;2022-12-19T01:16:47;7.15;;;5.53;;
47431;SDS011;33183;52.290;6.144;2022-12-19T01:19:13;8.88;;;5.85;;
47431;SDS011;33183;52.290;6.144;2022-12-19T01:21:38;6.68;;;5.55;;
47431;SDS011;33183;52.290;6.144;2022-12-19T01:24:04;6.63;;;5.18;;
47431;SDS011;33183;52.290;6.144;2022-12-19T01:26:29;6.18;;;5.18;;
47431;SDS011;33183;52.290;6.144;2022-12-19T01:28:55;6.18;;;5.25;;
47431;SDS011;33183;52.290;6.144;2022-12-19T01:31:20;5.88;;;4.72;;
47431;SDS011;33183;52.290;6.144;2022-12-19T01:33:46;6.57;;;5.18;;
47431;SDS011;33183;52.290;6.144;2022-12-19T01:36:11;7.22;;;5.57;;
47431;SDS011;33183;52.290;6.144;2022-12-19T01:38:36;8.10;;;5.28;;
47431;SDS011;33183;52.290;6.144;2022-12-19T01:41:02;7.47;;;5.85;;
47431;SDS011;33183;52.290;6.144;2022-12-19T01:43:28;6.90;;;5.65;;
47431;SDS011;33183;52.290;6.144;2022-12-19T01:45:56;6.00;;;5.40;;
47431;SDS011;33183;52.290;6.144;2022-12-19T01:48:31;6.57;;;5.20;;
47431;SDS011;33183;52.290;6.144;2022-12-19T01:51:02;7.30;;;5.32;;
47431;SDS011;33183;52.290;6.144;2022-12-19T01:53:33;6.90;;;5.20;;
47431;SDS011;33183;52.290;6.144;2022-12-19T01:56:02;6.90;;;5.30;;
47431;SDS011;33183;52.290;6.144;2022-12-19T01:58:28;7.30;;;5.38;;
47431;SDS011;33183;52.290;6.144;2022-12-19T02:00:54;7.05;;;5.38;;
47431;SDS011;33183;52.290;6.144;2022-12-19T02:03:24;5.72;;;5.00;;
47431;SDS011;33183;52.290;6.144;2022-12-19T02:05:51;7.63;;;5.68;;
47431;SDS011;33183;52.290;6.144;2022-12-19T02:08:18;5.75;;;5.15;;
47431;SDS011;33183;52.290;6.144;2022-12-19T02:10:43;5.97;;;5.15;;
47431;SDS011;33183;52.290;6.144;2022-12-19T02:13:09;7.47;;;5.72;;
47431;SDS011;33183;52.290;6.144;2022-12-19T02:15:39;5.60;;;4.80;;
47431;SDS011;33183;52.290;6.144;2022-12-19T02:23:37;5.65;;;4.47;;
47431;SDS011;33183;52.290;6.144;2022-12-19T02:29:00;7.18;;;5.53;;
47431;SDS011;33183;52.290;6.144;2022-12-19T02:34:39;6.43;;;5.05;;
47431;SDS011;33183;52.290;6.144;2022-12-19T02:37:10;6.13;;;5.30;;
47431;SDS011;33183;52.290;6.144;2022-12-19T02:39:42;7.03;;;5.68;;
47431;SDS011;33183;52.290;6.144;2022-12-19T02:42:14;6.40;;;5.72;;
47431;SDS011;33183;52.290;6.144;2022-12-19T02:44:44;5.95;;;4.95;;
47431;SDS011;33183;52.290;6.144;2022-12-19T02:49:38;6.30;;;5.43;;
47431;SDS011;33183;52.290;6.144;2022-12-19T02:52:08;6.20;;;4.38;;
47431;SDS011;33183;52.290;6.144;2022-12-19T02:54:37;5.40;;;4.32;;
47431;SDS011;33183;52.290;6.144;2022-12-19T02:57:09;5.75;;;4.47;;
47431;SDS011;33183;52.290;6.144;2022-12-19T03:05:49;5.80;;;4.75;;
47431;SDS011;33183;52.290;6.144;2022-12-19T03:11:00;5.35;;;4.47;;
47431;SDS011;33183;52.290;6.144;2022-12-19T03:13:28;4.70;;;4.20;;
47431;SDS011;33183;52.290;6.144;2022-12-19T03:15:56;6.13;;;5.05;;
47431;SDS011;33183;52.290;6.144;2022-12-19T03:18:22;6.50;;;4.90;;
47431;SDS011;33183;52.290;6.144;2022-12-19T03:21:33;5.78;;;4.70;;
47431;SDS011;33183;52.290;6.144;2022-12-19T03:23:33;7.65;;;5.38;;
47431;SDS011;33183;52.290;6.144;2022-12-19T03:26:06;5.60;;;4.63;;
47431;SDS011;33183;52.290;6.144;2022-12-19T03:31:19;5.50;;;4.63;;
47431;SDS011;33183;52.290;6.144;2022-12-19T03:33:46;5.83;;;5.10;;
47431;SDS011;33183;52.290;6.144;2022-12-19T03:36:16;5.80;;;5.07;;
47431;SDS011;33183;52.290;6.144;2022-12-19T03:38:45;5.10;;;4.28;;
47431;SDS011;33183;52.290;6.144;2022-12-19T03:41:11;5.68;;;4.72;;
47431;SDS011;33183;52.290;6.144;2022-12-19T03:43:38;5.68;;;4.68;;
47431;SDS011;33183;52.290;6.144;2022-12-19T03:46:09;5.38;;;4.63;;
47431;SDS011;33183;52.290;6.144;2022-12-19T03:48:42;4.80;;;4.20;;
47431;SDS011;33183;52.290;6.144;2022-12-19T03:53:53;5.13;;;4.43;;
47431;SDS011;33183;52.290;6.144;2022-12-19T03:59:04;5.07;;;4.57;;
47431;SDS011;33183;52.290;6.144;2022-12-19T04:01:32;6.60;;;4.68;;
47431;SDS011;33183;52.290;6.144;2022-12-19T04:03:58;4.68;;;4.07;;
47431;SDS011;33183;52.290;6.144;2022-12-19T04:06:25;5.15;;;4.60;;
47431;SDS011;33183;52.290;6.144;2022-12-19T04:08:52;6.55;;;5.28;;
47431;SDS011;33183;52.290;6.144;2022-12-19T04:11:18;5.32;;;4.28;;
47431;SDS011;33183;52.290;6.144;2022-12-19T04:13:48;5.63;;;4.35;;
47431;SDS011;33183;52.290;6.144;2022-12-19T04:16:22;4.53;;;4.07;;
47431;SDS011;33183;52.290;6.144;2022-12-19T04:18:55;5.57;;;4.53;;
47431;SDS011;33183;52.290;6.144;2022-12-19T04:21:30;4.47;;;4.00;;
47431;SDS011;33183;52.290;6.144;2022-12-19T04:23:59;6.18;;;4.78;;
47431;SDS011;33183;52.290;6.144;2022-12-19T04:26:29;5.10;;;3.95;;
47431;SDS011;33183;52.290;6.144;2022-12-19T04:28:56;5.47;;;4.20;;
47431;SDS011;33183;52.290;6.144;2022-12-19T04:31:24;5.20;;;4.50;;
47431;SDS011;33183;52.290;6.144;2022-12-19T04:33:50;6.03;;;5.30;;
47431;SDS011;33183;52.290;6.144;2022-12-19T04:36:15;5.53;;;4.85;;
47431;SDS011;33183;52.290;6.144;2022-12-19T04:38:40;6.05;;;4.28;;
47431;SDS011;33183;52.290;6.144;2022-12-19T04:41:05;5.30;;;4.45;;
47431;SDS011;33183;52.290;6.144;2022-12-19T04:43:31;5.88;;;4.05;;
47431;SDS011;33183;52.290;6.144;2022-12-19T04:45:56;6.05;;;5.05;;
47431;SDS011;33183;52.290;6.144;2022-12-19T04:48:22;5.40;;;4.47;;
47431;SDS011;33183;52.290;6.144;2022-12-19T04:50:47;5.78;;;4.47;;
47431;SDS011;33183;52.290;6.144;2022-12-19T04:53:12;5.38;;;4.38;;
47431;SDS011;33183;52.290;6.144;2022-12-19T04:55:37;6.00;;;4.47;;
47431;SDS011;33183;52.290;6.144;2022-12-19T04:58:04;5.28;;;4.47;;
47431;SDS011;33183;52.290;6.144;2022-12-19T05:00:30;5.20;;;4.00;;
47431;SDS011;33183;52.290;6.144;2022-12-19T05:02:55;5.97;;;4.50;;
47431;SDS011;33183;52.290;6.144;2022-12-19T05:05:20;5.65;;;4.75;;
47431;SDS011;33183;52.290;6.144;2022-12-19T05:07:45;5.25;;;4.32;;
47431;SDS011;33183;52.290;6.144;2022-12-19T05:10:11;5.13;;;4.32;;
47431;SDS011;33183;52.290;6.144;2022-12-19T05:12:36;5.10;;;4.20;;
47431;SDS011;33183;52.290;6.144;2022-12-19T05:15:01;4.90;;;3.90;;
47431;SDS011;33183;52.290;6.144;2022-12-19T05:17:27;6.00;;;4.93;;
47431;SDS011;33183;52.290;6.144;2022-12-19T05:19:52;5.18;;;4.32;;
47431;SDS011;33183;52.290;6.144;2022-12-19T05:22:17;5.18;;;4.47;;
47431;SDS011;33183;52.290;6.144;2022-12-19T05:24:43;5.57;;;4.75;;
47431;SDS011;33183;52.290;6.144;2022-12-19T05:27:08;4.80;;;4.10;;
47431;SDS011;33183;52.290;6.144;2022-12-19T05:29:34;4.97;;;4.30;;
47431;SDS011;33183;52.290;6.144;2022-12-19T05:31:59;6.38;;;4.40;;
47431;SDS011;33183;52.290;6.144;2022-12-19T05:34:24;4.47;;;4.00;;
47431;SDS011;33183;52.290;6.144;2022-12-19T05:36:49;5.07;;;4.10;;
47431;SDS011;33183;52.290;6.144;2022-12-19T05:39:15;4.38;;;3.90;;
47431;SDS011;33183;52.290;6.144;2022-12-19T05:41:40;5.47;;;4.57;;
47431;SDS011;33183;52.290;6.144;2022-12-19T05:44:06;4.97;;;4.43;;
47431;SDS011;33183;52.290;6.144;2022-12-19T05:46:31;4.60;;;3.85;;
47431;SDS011;33183;52.290;6.144;2022-12-19T05:48:56;4.70;;;4.00;;
47431;SDS011;33183;52.290;6.144;2022-12-19T05:51:23;4.75;;;4.25;;
47431;SDS011;33183;52.290;6.144;2022-12-19T05:53:49;4.47;;;3.50;;
47431;SDS011;33183;52.290;6.144;2022-12-19T05:56:15;5.78;;;3.53;;
47431;SDS011;33183;52.290;6.144;2022-12-19T05:58:42;4.97;;;4.03;;
47431;SDS011;33183;52.290;6.144;2022-12-19T06:01:10;5.28;;;3.70;;
47431;SDS011;33183;52.290;6.144;2022-12-19T06:03:37;4.38;;;3.83;;
47431;SDS011;33183;52.290;6.144;2022-12-19T06:06:03;4.72;;;3.88;;
47431;SDS011;33183;52.290;6.144;2022-12-19T06:08:29;9.10;;;4.38;;
47431;SDS011;33183;52.290;6.144;2022-12-19T06:10:57;5.28;;;3.85;;
47431;SDS011;33183;52.290;6.144;2022-12-19T06:13:23;4.43;;;4.00;;
47431;SDS011;33183;52.290;6.144;2022-12-19T06:15:48;4.82;;;3.75;;
47431;SDS011;33183;52.290;6.144;2022-12-19T06:18:13;5.07;;;3.88;;
47431;SDS011;33183;52.290;6.144;2022-12-19T06:20:38;4.93;;;3.78;;
47431;SDS011;33183;52.290;6.144;2022-12-19T06:23:04;4.00;;;3.53;;
47431;SDS011;33183;52.290;6.144;2022-12-19T06:25:29;4.22;;;3.53;;
47431;SDS011;33183;52.290;6.144;2022-12-19T06:27:54;4.15;;;3.20;;
47431;SDS011;33183;52.290;6.144;2022-12-19T06:30:20;4.57;;;3.40;;
47431;SDS011;33183;52.290;6.144;2022-12-19T06:32:45;4.38;;;3.53;;
47431;SDS011;33183;52.290;6.144;2022-12-19T06:35:10;3.90;;;3.35;;
47431;SDS011;33183;52.290;6.144;2022-12-19T06:37:35;4.80;;;3.40;;
47431;SDS011;33183;52.290;6.144;2022-12-19T06:40:01;4.20;;;3.53;;
47431;SDS011;33183;52.290;6.144;2022-12-19T06:42:26;5.82;;;3.88;;
47431;SDS011;33183;52.290;6.144;2022-12-19T06:44:52;5.93;;;3.17;;
47431;SDS011;33183;52.290;6.144;2022-12-19T06:47:18;4.75;;;2.92;;
47431;SDS011;33183;52.290;6.144;2022-12-19T06:49:46;5.22;;;3.35;;
47431;SDS011;33183;52.290;6.144;2022-12-19T06:52:12;5.95;;;2.95;;
47431;SDS011;33183;52.290;6.144;2022-12-19T06:54:38;3.78;;;3.17;;
47431;SDS011;33183;52.290;6.144;2022-12-19T06:57:04;4.28;;;2.95;;
47431;SDS011;33183;52.290;6.144;2022-12-19T06:59:29;3.95;;;3.30;;
47431;SDS011;33183;52.290;6.144;2022-12-19T07:02:11;3.78;;;2.92;;
47431;SDS011;33183;52.290;6.144;2022-12-19T07:04:45;5.10;;;3.38;;
47431;SDS011;33183;52.290;6.144;2022-12-19T07:07:11;4.85;;;2.95;;
47431;SDS011;33183;52.290;6.144;2022-12-19T07:09:36;4.82;;;3.38;;
47431;SDS011;33183;52.290;6.144;2022-12-19T07:12:02;5.65;;;3.17;;
47431;SDS011;33183;52.290;6.144;2022-12-19T07:14:27;3.38;;;3.03;;
47431;SDS011;33183;52.290;6.144;2022-12-19T07:16:52;5.07;;;3.08;;
47431;SDS011;33183;52.290;6.144;2022-12-19T07:19:19;3.08;;;2.60;;
47431;SDS011;33183;52.290;6.144;2022-12-19T07:21:45;3.78;;;3.03;;
47431;SDS011;33183;52.290;6.144;2022-12-19T07:24:11;3.55;;;2.60;;
47431;SDS011;33183;52.290;6.144;2022-12-19T07:26:37;3.28;;;2.88;;
47431;SDS011;33183;52.290;6.144;2022-12-19T07:29:02;3.25;;;2.35;;
47431;SDS011;33183;52.290;6.144;2022-12-19T07:31:27;4.88;;;3.20;;
47431;SDS011;33183;52.290;6.144;2022-12-19T07:33:53;3.33;;;2.85;;
47431;SDS011;33183;52.290;6.144;2022-12-19T07:36:18;4.90;;;2.72;;
47431;SDS011;33183;52.290;6.144;2022-12-19T07:38:43;3.08;;;2.78;;
47431;SDS011;33183;52.290;6.144;2022-12-19T07:41:09;2.85;;;2.60;;
47431;SDS011;33183;52.290;6.144;2022-12-19T07:43:34;2.90;;;2.50;;
47431;SDS011;33183;52.290;6.144;2022-12-19T07:46:00;3.30;;;2.50;;
47431;SDS011;33183;52.290;6.144;2022-12-19T07:48:25;3.90;;;3.35;;
47431;SDS011;33183;52.290;6.144;2022-12-19T07:50:52;5.70;;;3.17;;
47431;SDS011;33183;52.290;6.144;2022-12-19T07:53:18;4.43;;;2.63;;
47431;SDS011;33183;52.290;6.144;2022-12-19T07:55:43;4.15;;;2.70;;
47431;SDS011;33183;52.290;6.144;2022-12-19T07:58:08;3.72;;;2.70;;
47431;SDS011;33183;52.290;6.144;2022-12-19T08:00:38;3.85;;;2.50;;
47431;SDS011;33183;52.290;6.144;2022-12-19T08:03:03;3.53;;;3.00;;
47431;SDS011;33183;52.290;6.144;2022-12-19T08:05:29;3.45;;;2.67;;
47431;SDS011;33183;52.290;6.144;2022-12-19T08:07:54;2.63;;;2.42;;
47431;SDS011;33183;52.290;6.144;2022-12-19T08:10:20;4.93;;;2.85;;
47431;SDS011;33183;52.290;6.144;2022-12-19T08:12:46;3.55;;;2.55;;
47431;SDS011;33183;52.290;6.144;2022-12-19T08:15:12;3.03;;;2.53;;
47431;SDS011;33183;52.290;6.144;2022-12-19T08:17:37;2.88;;;2.60;;
47431;SDS011;33183;52.290;6.144;2022-12-19T08:20:03;2.55;;;2.35;;
47431;SDS011;33183;52.290;6.144;2022-12-19T08:22:30;3.40;;;2.53;;
47431;SDS011;33183;52.290;6.144;2022-12-19T08:24:56;3.35;;;2.60;;
47431;SDS011;33183;52.290;6.144;2022-12-19T08:27:21;2.47;;;2.28;;
47431;SDS011;33183;52.290;6.144;2022-12-19T08:29:47;2.03;;;1.90;;
47431;SDS011;33183;52.290;6.144;2022-12-19T08:32:13;3.47;;;2.30;;
47431;SDS011;33183;52.290;6.144;2022-12-19T08:34:39;2.13;;;1.92;;
47431;SDS011;33183;52.290;6.144;2022-12-19T08:37:04;2.80;;;2.45;;
47431;SDS011;33183;52.290;6.144;2022-12-19T08:39:29;2.30;;;2.00;;
47431;SDS011;33183;52.290;6.144;2022-12-19T08:41:54;4.57;;;2.75;;
47431;SDS011;33183;52.290;6.144;2022-12-19T08:44:20;2.65;;;2.17;;
47431;SDS011;33183;52.290;6.144;2022-12-19T08:46:45;2.45;;;2.25;;
47431;SDS011;33183;52.290;6.144;2022-12-19T08:49:10;2.83;;;2.25;;
47431;SDS011;33183;52.290;6.144;2022-12-19T08:51:36;2.63;;;2.15;;
47431;SDS011;33183;52.290;6.144;2022-12-19T08:54:01;3.42;;;2.53;;
47431;SDS011;33183;52.290;6.144;2022-12-19T08:56:26;2.20;;;1.90;;
47431;SDS011;33183;52.290;6.144;2022-12-19T08:58:52;3.55;;;2.25;;
47431;SDS011;33183;52.290;6.144;2022-12-19T09:01:18;2.22;;;2.03;;
47431;SDS011;33183;52.290;6.144;2022-12-19T09:03:44;3.45;;;2.50;;
47431;SDS011;33183;52.290;6.144;2022-12-19T09:06:10;2.80;;;1.90;;
47431;SDS011;33183;52.290;6.144;2022-12-19T09:08:37;3.08;;;2.10;;
47431;SDS011;33183;52.290;6.144;2022-12-19T09:11:04;2.92;;;2.55;;
47431;SDS011;33183;52.290;6.144;2022-12-19T09:13:31;3.00;;;2.37;;
47431;SDS011;33183;52.290;6.144;2022-12-19T09:16:04;2.15;;;1.90;;
47431;SDS011;33183;52.290;6.144;2022-12-19T09:18:40;2.58;;;2.20;;
47431;SDS011;33183;52.290;6.144;2022-12-19T09:21:06;2.63;;;2.20;;
47431;SDS011;33183;52.290;6.144;2022-12-19T09:23:32;2.10;;;1.88;;
47431;SDS011;33183;52.290;6.144;2022-12-19T09:26:01;5.32;;;2.20;;
47431;SDS011;33183;52.290;6.144;2022-12-19T09:28:28;3.35;;;2.35;;
47431;SDS011;33183;52.290;6.144;2022-12-19T09:30:58;1.92;;;1.63;;
47431;SDS011;33183;52.290;6.144;2022-12-19T09:33:28;2.80;;;2.17;;
47431;SDS011;33183;52.290;6.144;2022-12-19T09:35:55;2.75;;;2.25;;
47431;SDS011;33183;52.290;6.144;2022-12-19T09:38:21;3.15;;;2.22;;
47431;SDS011;33183;52.290;6.144;2022-12-19T09:43:32;2.70;;;1.90;;
47431;SDS011;33183;52.290;6.144;2022-12-19T09:46:10;2.60;;;1.88;;
47431;SDS011;33183;52.290;6.144;2022-12-19T09:48:42;2.55;;;2.00;;
47431;SDS011;33183;52.290;6.144;2022-12-19T09:51:10;2.13;;;1.67;;
47431;SDS011;33183;52.290;6.144;2022-12-19T09:53:53;3.17;;;1.90;;
47431;SDS011;33183;52.290;6.144;2022-12-19T09:56:22;2.65;;;1.83;;
47431;SDS011;33183;52.290;6.144;2022-12-19T09:58:53;2.38;;;2.05;;
47431;SDS011;33183;52.290;6.144;2022-12-19T10:01:24;2.60;;;2.03;;
47431;SDS011;33183;52.290;6.144;2022-12-19T10:03:57;2.25;;;1.50;;
47431;SDS011;33183;52.290;6.144;2022-12-19T10:06:25;2.35;;;1.73;;
47431;SDS011;33183;52.290;6.144;2022-12-19T10:08:51;2.75;;;1.77;;
47431;SDS011;33183;52.290;6.144;2022-12-19T10:13:58;2.03;;;1.83;;
47431;SDS011;33183;52.290;6.144;2022-12-19T10:16:58;3.13;;;1.80;;
47431;SDS011;33183;52.290;6.144;2022-12-19T10:24:45;3.15;;;1.77;;
47431;SDS011;33183;52.290;6.144;2022-12-19T10:35:36;1.98;;;1.65;;
47431;SDS011;33183;52.290;6.144;2022-12-19T10:46:01;4.65;;;1.85;;
47431;SDS011;33183;52.290;6.144;2022-12-19T10:48:30;2.55;;;2.10;;
47431;SDS011;33183;52.290;6.144;2022-12-19T10:50:55;2.00;;;1.70;;
47431;SDS011;33183;52.290;6.144;2022-12-19T10:53:25;2.00;;;1.73;;
47431;SDS011;33183;52.290;6.144;2022-12-19T10:55:54;2.60;;;1.80;;
47431;SDS011;33183;52.290;6.144;2022-12-19T10:58:35;2.55;;;1.77;;
47431;SDS011;33183;52.290;6.144;2022-12-19T11:01:08;2.63;;;2.03;;
47431;SDS011;33183;52.290;6.144;2022-12-19T11:03:34;2.17;;;1.70;;
47431;SDS011;33183;52.290;6.144;2022-12-19T11:06:00;2.00;;;1.80;;
47431;SDS011;33183;52.290;6.144;2022-12-19T11:08:35;3.05;;;1.88;;
47431;SDS011;33183;52.290;6.144;2022-12-19T11:15:58;2.35;;;1.80;;
47431;SDS011;33183;52.290;6.144;2022-12-19T11:18:35;2.33;;;1.80;;
47431;SDS011;33183;52.290;6.144;2022-12-19T11:21:18;2.45;;;1.92;;
47431;SDS011;33183;52.290;6.144;2022-12-19T11:24:34;2.47;;;1.75;;
47431;SDS011;33183;52.290;6.144;2022-12-19T11:31:55;1.70;;;1.60;;
47431;SDS011;33183;52.290;6.144;2022-12-19T11:34:24;2.28;;;1.65;;
47431;SDS011;33183;52.290;6.144;2022-12-19T11:36:59;4.50;;;1.90;;
47431;SDS011;33183;52.290;6.144;2022-12-19T11:42:25;2.33;;;1.92;;
47431;SDS011;33183;52.290;6.144;2022-12-19T11:45:05;2.00;;;1.80;;
47431;SDS011;33183;52.290;6.144;2022-12-19T11:47:39;2.10;;;1.60;;
47431;SDS011;33183;52.290;6.144;2022-12-19T11:50:10;3.22;;;2.00;;
47431;SDS011;33183;52.290;6.144;2022-12-19T11:52:45;2.00;;;1.75;;
47431;SDS011;33183;52.290;6.144;2022-12-19T11:57:39;3.25;;;2.25;;
47431;SDS011;33183;52.290;6.144;2022-12-19T12:00:10;2.15;;;1.80;;
47431;SDS011;33183;52.290;6.144;2022-12-19T12:02:52;2.35;;;1.70;;
47431;SDS011;33183;52.290;6.144;2022-12-19T12:11:00;2.90;;;1.80;;
47431;SDS011;33183;52.290;6.144;2022-12-19T12:13:37;1.75;;;1.50;;
47431;SDS011;33183;52.290;6.144;2022-12-19T12:16:19;2.92;;;1.85;;
47431;SDS011;33183;52.290;6.144;2022-12-19T12:21:54;1.80;;;1.70;;
47431;SDS011;33183;52.290;6.144;2022-12-19T12:30:02;2.58;;;1.77;;
47431;SDS011;33183;52.290;6.144;2022-12-19T12:38:05;2.10;;;1.90;;
47431;SDS011;33183;52.290;6.144;2022-12-19T12:43:39;1.70;;;1.58;;
47431;SDS011;33183;52.290;6.144;2022-12-19T12:46:18;1.60;;;1.50;;
47431;SDS011;33183;52.290;6.144;2022-12-19T12:48:47;3.20;;;1.67;;
47431;SDS011;33183;52.290;6.144;2022-12-19T12:51:18;2.85;;;1.95;;
47431;SDS011;33183;52.290;6.144;2022-12-19T12:53:44;2.90;;;1.83;;
47431;SDS011;33183;52.290;6.144;2022-12-19T12:56:11;1.80;;;1.52;;
47431;SDS011;33183;52.290;6.144;2022-12-19T13:03:49;1.92;;;1.60;;
47431;SDS011;33183;52.290;6.144;2022-12-19T13:06:24;2.13;;;1.65;;
47431;SDS011;33183;52.290;6.144;2022-12-19T13:08:50;1.70;;;1.60;;
47431;SDS011;33183;52.290;6.144;2022-12-19T13:16:58;2.03;;;1.70;;
47431;SDS011;33183;52.290;6.144;2022-12-19T13:19:25;2.72;;;1.83;;
47431;SDS011;33183;52.290;6.144;2022-12-19T13:35:04;1.40;;;1.30;;
47431;SDS011;33183;52.290;6.144;2022-12-19T13:43:09;1.83;;;1.40;;
47431;SDS011;33183;52.290;6.144;2022-12-19T13:45:55;2.58;;;1.40;;
47431;SDS011;33183;52.290;6.144;2022-12-19T13:51:06;1.38;;;1.10;;
47431;SDS011;33183;52.290;6.144;2022-12-19T13:53:32;1.92;;;1.30;;
47431;SDS011;33183;52.290;6.144;2022-12-19T13:56:02;1.52;;;1.27;;
47431;SDS011;33183;52.290;6.144;2022-12-19T13:58:31;1.75;;;1.50;;
47431;SDS011;33183;52.290;6.144;2022-12-19T14:01:02;2.25;;;1.70;;
47431;SDS011;33183;52.290;6.144;2022-12-19T14:03:37;2.72;;;1.58;;
47431;SDS011;33183;52.290;6.144;2022-12-19T14:06:07;1.40;;;1.20;;
47431;SDS011;33183;52.290;6.144;2022-12-19T14:11:44;2.38;;;1.27;;
47431;SDS011;33183;52.290;6.144;2022-12-19T14:14:13;1.25;;;1.15;;
47431;SDS011;33183;52.290;6.144;2022-12-19T14:17:17;1.97;;;1.43;;
47431;SDS011;33183;52.290;6.144;2022-12-19T14:19:45;2.38;;;1.48;;
47431;SDS011;33183;52.290;6.144;2022-12-19T14:22:13;2.03;;;1.42;;
47431;SDS011;33183;52.290;6.144;2022-12-19T14:24:55;1.90;;;1.63;;
47431;SDS011;33183;52.290;6.144;2022-12-19T14:27:36;2.38;;;1.45;;
47431;SDS011;33183;52.290;6.144;2022-12-19T14:30:07;2.28;;;1.48;;
47431;SDS011;33183;52.290;6.144;2022-12-19T14:32:41;2.03;;;1.48;;
47431;SDS011;33183;52.290;6.144;2022-12-19T14:35:07;4.20;;;1.52;;
47431;SDS011;33183;52.290;6.144;2022-12-19T14:37:36;3.78;;;1.52;;
47431;SDS011;33183;52.290;6.144;2022-12-19T14:40:17;1.92;;;1.52;;
47431;SDS011;33183;52.290;6.144;2022-12-19T14:42:45;1.83;;;1.50;;
47431;SDS011;33183;52.290;6.144;2022-12-19T14:45:31;2.50;;;1.58;;
47431;SDS011;33183;52.290;6.144;2022-12-19T14:48:25;2.28;;;1.67;;
47431;SDS011;33183;52.290;6.144;2022-12-19T14:51:02;2.03;;;1.77;;
47431;SDS011;33183;52.290;6.144;2022-12-19T14:53:38;1.98;;;1.38;;
47431;SDS011;33183;52.290;6.144;2022-12-19T14:58:33;1.70;;;1.55;;
47431;SDS011;33183;52.290;6.144;2022-12-19T15:01:00;1.80;;;1.55;;
47431;SDS011;33183;52.290;6.144;2022-12-19T15:03:31;2.30;;;1.85;;
47431;SDS011;33183;52.290;6.144;2022-12-19T15:08:38;1.45;;;1.20;;
47431;SDS011;33183;52.290;6.144;2022-12-19T15:11:04;2.15;;;1.45;;
47431;SDS011;33183;52.290;6.144;2022-12-19T15:13:53;1.20;;;1.10;;
47431;SDS011;33183;52.290;6.144;2022-12-19T15:18:49;1.42;;;1.30;;
47431;SDS011;33183;52.290;6.144;2022-12-19T15:21:15;2.63;;;1.60;;
47431;SDS011;33183;52.290;6.144;2022-12-19T15:23:42;1.33;;;1.23;;
47431;SDS011;33183;52.290;6.144;2022-12-19T15:26:11;2.38;;;1.30;;
47431;SDS011;33183;52.290;6.144;2022-12-19T15:28:42;2.47;;;1.60;;
47431;SDS011;33183;52.290;6.144;2022-12-19T15:31:32;1.75;;;1.40;;
47431;SDS011;33183;52.290;6.144;2022-12-19T15:36:52;1.83;;;1.52;;
47431;SDS011;33183;52.290;6.144;2022-12-19T15:39:18;1.35;;;1.25;;
47431;SDS011;33183;52.290;6.144;2022-12-19T15:41:45;1.40;;;1.30;;
47431;SDS011;33183;52.290;6.144;2022-12-19T15:44:14;3.60;;;1.73;;
47431;SDS011;33183;52.290;6.144;2022-12-19T15:46:41;1.60;;;1.38;;
47431;SDS011;33183;52.290;6.144;2022-12-19T15:49:10;1.90;;;1.60;;
47431;SDS011;33183;52.290;6.144;2022-12-19T15:51:38;1.70;;;1.40;;
47431;SDS011;33183;52.290;6.144;2022-12-19T15:54:03;1.70;;;1.58;;
47431;SDS011;33183;52.290;6.144;2022-12-19T15:56:29;2.45;;;1.40;;
47431;SDS011;33183;52.290;6.144;2022-12-19T15:58:58;1.65;;;1.48;;
47431;SDS011;33183;52.290;6.144;2022-12-19T16:01:24;1.88;;;1.58;;
47431;SDS011;33183;52.290;6.144;2022-12-19T16:03:50;1.50;;;1.35;;
47431;SDS011;33183;52.290;6.144;2022-12-19T16:06:16;2.67;;;1.55;;
47431;SDS011;33183;52.290;6.144;2022-12-19T16:08:41;2.90;;;1.45;;
47431;SDS011;33183;52.290;6.144;2022-12-19T16:11:17;2.75;;;1.50;;
47431;SDS011;33183;52.290;6.144;2022-12-19T16:13:44;2.70;;;1.60;;
47431;SDS011;33183;52.290;6.144;2022-12-19T16:16:13;3.38;;;1.77;;
47431;SDS011;33183;52.290;6.144;2022-12-19T16:18:38;4.63;;;1.70;;
47431;SDS011;33183;52.290;6.144;2022-12-19T16:21:04;2.20;;;1.92;;
47431;SDS011;33183;52.290;6.144;2022-12-19T16:23:30;1.92;;;1.65;;
47431;SDS011;33183;52.290;6.144;2022-12-19T16:25:55;3.05;;;1.45;;
47431;SDS011;33183;52.290;6.144;2022-12-19T16:28:38;4.07;;;1.70;;
47431;SDS011;33183;52.290;6.144;2022-12-19T16:31:12;4.47;;;2.03;;
47431;SDS011;33183;52.290;6.144;2022-12-19T16:33:39;2.45;;;2.05;;
47431;SDS011;33183;52.290;6.144;2022-12-19T16:36:04;3.10;;;1.80;;
47431;SDS011;33183;52.290;6.144;2022-12-19T16:38:30;2.20;;;1.67;;
47431;SDS011;33183;52.290;6.144;2022-12-19T16:40:55;2.25;;;1.58;;
47431;SDS011;33183;52.290;6.144;2022-12-19T16:43:24;3.78;;;1.67;;
47431;SDS011;33183;52.290;6.144;2022-12-19T16:45:53;2.90;;;1.58;;
47431;SDS011;33183;52.290;6.144;2022-12-19T16:48:20;2.53;;;1.88;;
47431;SDS011;33183;52.290;6.144;2022-12-19T16:50:46;2.10;;;1.60;;
47431;SDS011;33183;52.290;6.144;2022-12-19T16:53:12;2.40;;;1.70;;
47431;SDS011;33183;52.290;6.144;2022-12-19T16:55:38;2.45;;;1.85;;
47431;SDS011;33183;52.290;6.144;2022-12-19T16:58:03;2.55;;;1.75;;
47431;SDS011;33183;52.290;6.144;2022-12-19T17:00:28;2.35;;;2.00;;
47431;SDS011;33183;52.290;6.144;2022-12-19T17:02:54;2.50;;;1.70;;
47431;SDS011;33183;52.290;6.144;2022-12-19T17:05:23;4.95;;;2.17;;
47431;SDS011;33183;52.290;6.144;2022-12-19T17:07:50;2.40;;;2.20;;
47431;SDS011;33183;52.290;6.144;2022-12-19T17:10:17;2.20;;;1.90;;
47431;SDS011;33183;52.290;6.144;2022-12-19T17:12:43;3.10;;;2.03;;
47431;SDS011;33183;52.290;6.144;2022-12-19T17:15:16;3.50;;;2.60;;
47431;SDS011;33183;52.290;6.144;2022-12-19T17:17:56;3.15;;;1.98;;
47431;SDS011;33183;52.290;6.144;2022-12-19T17:20:24;3.67;;;2.35;;